Flight Track Log - Related Links

Times and Time Zones

All times are in EDT time to prevent confusion due to time zone crossing. See the USC105 flight status page for this flight to view local times or setup timezone preferences in your user account.

Time Position Orientation Groundspeed Altitude Reporting Facility
EDT Latitude Longitude Course Direction KTS MPH feet Rate Location/Type
Fri 05:47:14 AM 41.8500 -88.2500 83° East 125 144 2,500  Level Chicago TRACON
Fri 05:48:08 AM 41.8167 -88.2333 160° South 129 148 3,600 1,211 Climbing Chicago TRACON
Fri 05:49:08 AM 41.7833 -88.2000 143° Southeast 131 151 4,800 1,095 Climbing Chicago TRACON
Fri 05:50:14 AM 41.7667 -88.1667 124° Southeast 137 158 5,900 952 Climbing Chicago TRACON
Fri 05:51:14 AM 41.7667 -88.1000 90° East 158 182 6,800 579 Climbing Chicago TRACON
Fri 05:52:00 AM 41.9454 -87.8188 83° East  Level Estimated
Fri 05:52:08 AM 41.7667 -88.0500 90° East 186 214 7,000  Level Chicago TRACON
Fri 05:53:08 AM 41.7833 -87.9667 75° East 206 237 7,000  Level Chicago TRACON
Fri 05:54:08 AM 41.7833 -87.9000 90° East 200 230 7,000 50 Level Chicago TRACON
Fri 05:55:09 AM 41.8000 -87.8167 75° East 209 241 7,100  Climbing Chicago TRACON
Fri 05:56:09 AM 41.8000 -87.7500 90° East 213 245 7,000 -50 Descending Chicago TRACON
Fri 05:57:09 AM 41.8167 -87.6667 75° East 211 243 7,000 48 Level Chicago TRACON
Fri 05:58:15 AM 41.8167 -87.5833 90° East 209 241 7,100 45 Climbing Chicago TRACON
Fri 05:59:21 AM 41.8319 -87.5036 76° East 209 241 7,100 -47 Level Chicago Center
Fri 06:00:22 AM 41.8417 -87.4278 80° East 208 239 7,000 -50 Descending Chicago Center
Fri 06:01:22 AM 41.8500 -87.3514 82° East 207 238 7,000  Level Chicago Center
Fri 06:02:22 AM 41.8592 -87.2758 81° East 206 237 7,000  Level Chicago Center
Fri 06:03:23 AM 41.8681 -87.2019 81° East 202 232 7,000  Level Chicago Center
Fri 06:04:23 AM 41.8781 -87.1278 80° East 203 234 7,000  Level Chicago Center
Fri 06:05:24 AM 41.8861 -87.0519 82° East 204 235 7,000  Level Chicago Center
Fri 06:06:24 AM 41.8953 -86.9783 80° East 201 231 7,000  Level Chicago Center
Fri 06:07:24 AM 41.9028 -86.9019 82° East 204 235 7,000  Level Chicago Center
Fri 06:08:25 AM 41.9117 -86.8275 81° East 204 235 7,000  Level Chicago Center
Fri 06:09:26 AM 41.9208 -86.7525 81° East 204 235 7,000  Level Chicago Center
Fri 06:10:26 AM 41.9292 -86.6733 82° East 205 236 7,000  Level Chicago Center
Fri 06:11:26 AM 41.9375 -86.5964 82° East 207 238 7,000  Level Chicago Center
Fri 06:12:26 AM 41.9464 -86.5211 81° East 205 236 7,000  Level Chicago Center
Fri 06:13:27 AM 41.9556 -86.4469 81° East 204 235 7,000  Level Chicago Center
Fri 06:14:27 AM 41.9636 -86.3728 82° East 201 231 7,000  Level Chicago Center
Fri 06:15:28 AM 41.9717 -86.2994 82° East 199 229 7,000  Level Chicago Center
Fri 06:16:28 AM 41.9792 -86.2264 82° East 198 228 7,000  Level Chicago Center
Fri 06:17:28 AM 41.9872 -86.1519 82° East 200 230 7,000  Level Chicago Center
Fri 06:18:29 AM 41.9964 -86.0792 80° East 199 229 7,000  Level Chicago Center
Fri 06:19:29 AM 42.0036 -86.0044 83° East 200 230 7,000  Level Chicago Center
Fri 06:20:30 AM 42.0114 -85.9294 82° East 202 232 7,000  Level Chicago Center
Fri 06:21:30 AM 42.0200 -85.8525 81° East 206 237 7,000  Level Chicago Center
Fri 06:22:31 AM 42.0286 -85.7772 81° East 205 236 7,000  Level Chicago Center
Fri 06:23:31 AM 42.0361 -85.7014 82° East 205 236 7,000  Level Chicago Center
Fri 06:24:31 AM 42.0439 -85.6250 82° East 205 236 7,000  Level Chicago Center
Fri 06:25:32 AM 42.0517 -85.5492 82° East 205 236 7,000  Level Chicago Center
Fri 06:26:32 AM 42.0603 -85.4708 82° East 209 241 7,000  Level Chicago Center
Fri 06:27:33 AM 42.0678 -85.3928 83° East 210 242 7,000  Level Chicago Center
Fri 06:28:33 AM 42.0750 -85.3161 83° East 208 239 7,000  Level Chicago Center
Fri 06:29:34 AM 42.0836 -85.2400 81° East 206 237 7,000  Level Chicago Center
Fri 06:30:34 AM 42.0911 -85.1631 82° East 206 237 7,000  Level Chicago Center
Fri 06:31:34 AM 42.0981 -85.0878 83° East 204 235 7,000  Level Chicago Center
Fri 06:32:35 AM 42.1056 -85.0119 82° East 204 235 7,000  Level Chicago Center
Fri 06:33:35 AM 42.1131 -84.9375 82° East 202 232 7,000  Level Chicago Center
Fri 06:34:36 AM 42.1197 -84.8625 83° East 202 232 7,000  Level Chicago Center
Fri 06:35:36 AM 42.1272 -84.7853 83° East 205 236 7,000  Level Chicago Center
Fri 06:36:37 AM 42.1350 -84.7092 82° East 206 237 7,000  Level Chicago Center
Fri 06:37:37 AM 42.1419 -84.6314 83° East 207 238 7,000  Level Chicago Center
Fri 06:38:38 AM 42.1492 -84.5556 83° East 206 237 7,000 -78 Level Chicago Center
Fri 06:38:54 AM 42.1531 -84.5214 81° East 207 238 6,900 -78 Descending Cleveland Center
Fri 06:39:55 AM 42.1597 -84.4436 83° East 210 242 6,900  Level Cleveland Center
Fri 06:40:56 AM 42.1644 -84.3653 85° East 212 244 6,900  Level Cleveland Center
Fri 06:42:02 AM 42.1736 -84.2761 82° East 211 243 6,900  Level Cleveland Center
Fri 06:43:09 AM 42.1806 -84.1925 84° East 208 239 6,900  Level Cleveland Center
Fri 06:44:10 AM 42.1889 -84.1200 81° East 203 234 6,900 -492 Level Cleveland Center
Fri 06:45:11 AM 42.1997 -84.0422 79° East 214 246 5,900 -1,087 Descending Cleveland Center
Fri 06:46:17 AM 42.2128 -83.9503 79° East 226 260 4,600 -1,289 Descending Cleveland Center
Fri 06:47:12 AM 42.2256 -83.8753 77° East 216 249 3,300 -887 Descending Cleveland Center
Fri 06:48:12 AM 42.2378 -83.8031 77° East 198 228 2,900 -522 Descending Cleveland Center
Fri 06:49:07 AM 42.2417 -83.7414 85° East 171 197 2,300 -281 Descending Cleveland Center
Fri 06:50:20 AM 42.2436 -83.6714 88° East 141 162 2,300 -216 Level Cleveland Center
Fri 06:51:26 AM 42.2408 -83.6153 94° East 127 146 1,800 -567 Descending Cleveland Center
Fri 06:52:27 AM 42.2442 -83.5678 85° East 133 153 1,100 -689 Descending Cleveland Center
Fri 06:54:00 AM 42.2393 -83.5310 90° East  Level Estimated

Login

Don't have an account? Register now (free) for customized features, flight alerts, and more!